Time;durP1;ratioP1;P1;durP2;ratioP2;P2;SDS_P1;SDS_P2;PMS_P1;PMS_P2;Temp;Humidity;BMP_temperature;BMP_pressure;BME280_temperature;BME280_humidity;BME280_pressure;Samples;Min_cycle;Max_cycle;Signal;HPM_P1;HPM_P2
2022/06/22 00:02:34;;;;;;;;;;;;;;;29.79;40.65;93803.81;4951288;28;7203;-60
2022/06/22 00:05:04;;;;;;;;;;;;;;;29.81;41.10;93792.91;4947514;28;9557;-61
2022/06/22 00:07:36;;;;;;;;;;;;;;;29.80;40.78;93788.63;5034945;28;7234;-61
2022/06/22 00:10:15;;;;;;;;;;;;;;;29.80;40.84;93788.63;5053076;28;7293;-61
2022/06/22 00:12:55;;;;;;;;;;;;;;;29.76;40.79;93800.09;5067463;28;7377;-60
2022/06/22 00:16:06;;;;;;;;;;;;;;;29.70;41.29;93812.63;5035620;28;7158;-61
2022/06/22 00:18:39;;;;;;;;;;;;;;;29.66;40.65;93809.50;5050010;28;7801;-61
2022/06/22 00:21:16;;;;;;;;;;;;;;;29.64;41.17;93809.31;5051716;28;9406;-61
2022/06/22 00:23:54;;;;;;;;;;;;;;;29.59;40.85;93810.22;5052951;28;7202;-61
2022/06/22 00:26:23;;;;;;;;;;;;;;;29.60;40.69;93800.63;5066898;28;8786;-61
2022/06/22 00:29:05;;;;;;;;;;;;;;;29.54;41.01;93795.22;5055243;28;7393;-61
2022/06/22 00:31:51;;;;;;;;;;;;;;;29.54;41.07;93786.91;5050557;28;9085;-61
2022/06/22 00:34:23;;;;;;;;;;;;;;;29.51;41.41;93779.72;5048308;28;7750;-61
2022/06/22 00:37:03;;;;;;;;;;;;;;;29.51;41.45;93785.28;5064327;28;7265;-62
2022/06/22 00:39:29;;;;;;;;;;;;;;;29.51;40.89;93790.81;5049465;28;9038;-61
2022/06/22 00:41:55;;;;;;;;;;;;;;;29.52;41.19;93792.28;5049346;28;6971;-61
2022/06/22 00:44:25;;;;;;;;;;;;;;;29.54;41.03;93783.41;5066684;28;7873;-61
2022/06/22 00:47:09;;;;;;;;;;;;;;;29.56;41.15;93787.09;5048882;28;9071;-61
2022/06/22 00:49:44;;;;;;;;;;;;;;;29.56;41.19;93792.66;5048486;28;7080;-61
2022/06/22 00:52:19;;;;;;;;;;;;;;;29.56;41.29;93798.19;5049122;28;9029;-61
2022/06/22 00:54:46;;;;;;;;;;;;;;;29.56;41.09;93791.91;5067372;28;9558;-61
2022/06/22 00:57:22;;;;;;;;;;;;;;;29.58;40.98;93794.88;5070047;28;7299;-61
2022/06/22 01:00:16;;;;;;;;;;;;;;;29.60;41.18;93795.06;5072880;28;6983;-61
2022/06/22 01:02:48;;;;;;;;;;;;;;;29.59;41.15;93796.34;5059101;28;7199;-61
2022/06/22 01:05:29;;;;;;;;;;;;;;;29.59;40.22;93799.88;5061831;28;8487;-62
2022/06/22 01:08:01;;;;;;;;;;;;;;;29.60;40.64;93800.63;5052255;28;7191;-61
2022/06/22 01:10:56;;;;;;;;;;;;;;;29.59;41.02;93799.13;5052180;28;9396;-61
2022/06/22 01:13:49;;;;;;;;;;;;;;;29.58;41.14;93795.59;5026123;28;7282;-61
2022/06/22 01:16:28;;;;;;;;;;;;;;;29.58;40.38;93795.59;5064058;28;9221;-61
2022/06/22 01:19:01;;;;;;;;;;;;;;;29.58;41.11;93792.84;5055146;28;9447;-61
2022/06/22 01:21:46;;;;;;;;;;;;;;;29.58;40.36;93801.16;5045992;28;9475;-61
2022/06/22 01:24:21;;;;;;;;;;;;;;;29.57;40.98;93798.94;5056661;28;7011;-61
2022/06/22 01:27:35;;;;;;;;;;;;;;;29.55;40.44;93805.03;5075500;28;7082;-61
2022/06/22 01:30:31;;;;;;;;;;;;;;;29.56;40.18;93802.97;5059495;28;9062;-61
2022/06/22 01:33:23;;;;;;;;;;;;;;;29.55;41.04;93798.75;4976879;28;7466;-61
2022/06/22 01:35:56;;;;;;;;;;;;;;;29.55;41.04;93793.22;5000340;28;7239;-61
2022/06/22 01:38:26;;;;;;;;;;;;;;;29.54;40.49;93783.41;4995112;28;7361;-61
2022/06/22 01:41:29;;;;;;;;;;;;;;;29.53;41.00;93782.69;4979132;28;7575;-61
2022/06/22 01:44:19;;;;;;;;;;;;;;;29.51;40.42;93782.50;4974319;28;7919;-61
2022/06/22 01:46:51;;;;;;;;;;;;;;;29.52;41.21;93785.97;4973993;28;9085;-61
2022/06/22 01:49:36;;;;;;;;;;;;;;;29.50;40.67;93788.56;4991493;28;7614;-61
2022/06/22 01:52:24;;;;;;;;;;;;;;;29.49;41.17;93778.78;5002084;28;7115;-62
2022/06/22 01:54:59;;;;;;;;;;;;;;;29.51;40.61;93784.53;4976162;28;7190;-61
2022/06/22 01:57:35;;;;;;;;;;;;;;;29.51;40.35;93801.16;5009568;28;9324;-61
2022/06/22 02:00:14;;;;;;;;;;;;;;;29.50;40.66;93788.56;4992723;28;9082;-61
2022/06/22 02:02:51;;;;;;;;;;;;;;;29.49;40.44;93801.69;4996477;28;7181;-61
2022/06/22 02:05:34;;;;;;;;;;;;;;;29.50;40.40;93802.41;4982061;28;9101;-61
2022/06/22 02:08:13;;;;;;;;;;;;;;;29.48;40.83;93797.44;5001986;28;7347;-61
2022/06/22 02:11:18;;;;;;;;;;;;;;;29.49;41.17;93804.44;5045224;28;7357;-60
2022/06/22 02:14:09;;;;;;;;;;;;;;;29.47;41.35;93795.94;5056796;28;9002;-61
2022/06/22 02:16:52;;;;;;;;;;;;;;;29.46;41.00;93797.25;5070598;28;9086;-61
2022/06/22 02:19:20;;;;;;;;;;;;;;;29.45;41.00;93798.53;5053211;28;7272;-61
2022/06/22 02:21:50;;;;;;;;;;;;;;;29.44;41.37;93799.09;5069490;28;7079;-61
2022/06/22 02:24:41;;;;;;;;;;;;;;;29.43;40.70;93800.38;5055501;28;9421;-61
2022/06/22 02:27:14;;;;;;;;;;;;;;;29.43;40.81;93797.59;5051638;28;9510;-61
2022/06/22 02:29:52;;;;;;;;;;;;;;;29.42;41.08;93794.09;5067703;28;9154;-61
2022/06/22 02:32:24;;;;;;;;;;;;;;;29.42;41.14;93790.59;5047394;28;9093;-61
2022/06/22 02:34:54;;;;;;;;;;;;;;;29.42;41.15;93794.09;5066823;28;7052;-60
2022/06/22 02:37:26;;;;;;;;;;;;;;;29.39;40.79;93786.13;5052981;28;9126;-61
2022/06/22 02:39:58;;;;;;;;;;;;;;;29.43;40.89;93790.03;5038930;28;7241;-60
2022/06/22 02:45:17;;;;;;;;;;;;;;;29.45;40.96;93793.00;5063861;28;9389;-61
2022/06/22 02:47:43;;;;;;;;;;;;;;;29.45;40.76;93798.53;5052951;28;9117;-61
2022/06/22 02:50:20;;;;;;;;;;;;;;;29.47;41.43;93795.22;5062561;28;7305;-60
2022/06/22 02:53:02;;;;;;;;;;;;;;;29.48;40.86;93793.94;5052992;28;7235;-60
2022/06/22 02:55:34;;;;;;;;;;;;;;;29.47;40.75;93798.00;5069712;28;8533;-61
2022/06/22 02:58:02;;;;;;;;;;;;;;;29.48;41.11;93791.16;5055644;28;9132;-61
2022/06/22 03:00:37;;;;;;;;;;;;;;;29.47;40.90;93789.69;5045280;28;9133;-61
2022/06/22 03:03:20;;;;;;;;;;;;;;;29.47;41.17;93784.88;5056785;28;8756;-60
2022/06/22 03:05:53;;;;;;;;;;;;;;;29.49;40.50;93784.34;5072955;28;7182;-61
2022/06/22 03:08:21;;;;;;;;;;;;;;;29.48;41.28;93791.91;5061123;28;7156;-61
2022/06/22 03:11:08;;;;;;;;;;;;;;;29.50;40.42;93805.19;5072437;28;6868;-61
2022/06/22 03:14:21;;;;;;;;;;;;;;;29.50;41.13;93805.19;5072481;28;7197;-61
2022/06/22 03:16:57;;;;;;;;;;;;;;;29.50;40.54;93800.41;5061327;28;7834;-61
2022/06/22 03:20:01;;;;;;;;;;;;;;;29.48;40.70;93794.66;5068514;28;9053;-61
2022/06/22 03:23:35;;;;;;;;;;;;;;;29.48;40.72;93807.78;5053212;28;9479;-61
2022/06/22 03:26:24;;;;;;;;;;;;;;;29.46;40.92;93813.13;4893524;29;7380;-61
2022/06/22 03:29:03;;;;;;;;;;;;;;;29.46;41.20;93819.41;4892187;29;8908;-61
2022/06/22 03:31:43;;;;;;;;;;;;;;;29.48;40.56;93814.06;4891732;29;7232;-61
2022/06/22 03:34:46;;;;;;;;;;;;;;;29.47;40.96;93826.44;4881637;29;10515;-61
2022/06/22 03:37:28;;;;;;;;;;;;;;;29.44;41.47;93812.94;4875064;29;7003;-61
2022/06/22 03:40:01;;;;;;;;;;;;;;;29.45;40.90;93814.44;4859679;29;9204;-61
2022/06/22 03:42:37;;;;;;;;;;;;;;;29.45;40.89;93825.53;4857921;29;8908;-61
2022/06/22 03:45:12;;;;;;;;;;;;;;;29.45;40.99;93825.53;4871511;29;9081;-61
2022/06/22 03:47:57;;;;;;;;;;;;;;;29.44;41.34;93815.72;4873365;29;7000;-61
2022/06/22 03:50:51;;;;;;;;;;;;;;;29.46;41.14;93832.53;4857743;29;9038;-61
2022/06/22 03:53:30;;;;;;;;;;;;;;;29.44;41.50;93833.09;4874349;29;9048;-60
2022/06/22 03:56:02;;;;;;;;;;;;;;;29.43;41.15;93828.81;4869692;29;7055;-60
2022/06/22 03:58:28;;;;;;;;;;;;;;;29.43;41.34;93830.84;4874542;29;9373;-60
2022/06/22 04:00:54;;;;;;;;;;;;;;;29.42;40.85;93830.13;4955755;28;7534;-61
2022/06/22 04:03:30;;;;;;;;;;;;;;;29.39;40.89;93811.06;4990966;28;8867;-61
2022/06/22 04:06:23;;;;;;;;;;;;;;;29.40;40.78;93824.41;4999902;28;7241;-61
2022/06/22 04:08:50;;;;;;;;;;;;;;;29.41;41.07;93814.03;5011034;28;7237;-61
2022/06/22 04:11:26;;;;;;;;;;;;;;;29.39;41.42;93833.25;5010643;28;7676;-61
2022/06/22 04:14:12;;;;;;;;;;;;;;;29.35;41.60;93844.69;5043041;28;9166;-61
2022/06/22 04:16:42;;;;;;;;;;;;;;;29.34;41.45;93842.47;5019714;28;7232;-60
2022/06/22 04:19:54;;;;;;;;;;;;;;;29.32;41.07;93856.84;5072647;28;9173;-61
2022/06/22 04:22:27;;;;;;;;;;;;;;;29.31;41.73;93838.78;5030807;28;6848;-60
2022/06/22 04:24:59;;;;;;;;;;;;;;;29.30;41.65;93825.44;5068649;28;7880;-61
2022/06/22 04:27:48;;;;;;;;;;;;;;;29.28;42.06;93826.00;5046233;28;7878;-60
2022/06/22 04:30:25;;;;;;;;;;;;;;;29.27;41.60;93829.34;5035834;28;7005;-60
2022/06/22 04:33:06;;;;;;;;;;;;;;;29.28;42.10;93825.25;5050817;28;7672;-60
2022/06/22 04:35:49;;;;;;;;;;;;;;;29.26;41.88;93828.59;5067971;28;9101;-61
2022/06/22 04:38:27;;;;;;;;;;;;;;;29.26;42.01;93830.59;5064580;28;9252;-61
2022/06/22 04:41:21;;;;;;;;;;;;;;;29.25;42.26;93829.13;5071271;28;8992;-60
2022/06/22 04:43:47;;;;;;;;;;;;;;;29.24;42.49;93817.31;5053627;28;9867;-61
2022/06/22 04:46:22;;;;;;;;;;;;;;;29.22;42.33;93808.06;5051565;28;7260;-60
2022/06/22 04:49:05;;;;;;;;;;;;;;;29.23;42.27;93820.63;5068154;28;7794;-60
2022/06/22 04:52:17;;;;;;;;;;;;;;;29.22;42.87;93830.97;5052235;28;8739;-60
2022/06/22 04:54:47;;;;;;;;;;;;;;;29.21;43.02;93834.31;4973904;28;8737;-61
2022/06/22 04:57:45;;;;;;;;;;;;;;;29.19;43.38;93829.28;4987061;28;7251;-61
2022/06/22 05:00:19;;;;;;;;;;;;;;;29.18;43.03;93824.31;4945855;29;7218;-61
2022/06/22 05:03:12;;;;;;;;;;;;;;;29.20;43.17;93828.00;4948630;29;9120;-61
2022/06/22 05:05:47;;;;;;;;;;;;;;;29.21;43.33;93839.84;4936470;29;7336;-61
2022/06/22 05:08:40;;;;;;;;;;;;;;;29.21;42.37;93853.69;4919355;29;6930;-61
2022/06/22 05:11:21;;;;;;;;;;;;;;;29.21;43.20;93859.22;4935170;29;8448;-61
2022/06/22 05:13:58;;;;;;;;;;;;;;;29.19;43.24;93872.88;4950092;29;9127;-61
2022/06/22 05:16:58;;;;;;;;;;;;;;;29.20;43.20;93871.59;4950581;29;9185;-61
2022/06/22 05:19:58;;;;;;;;;;;;;;;29.20;43.33;93882.66;4951293;29;8045;-61
2022/06/22 05:22:35;;;;;;;;;;;;;;;29.18;43.54;93874.16;4935932;29;8304;-61
2022/06/22 05:25:07;;;;;;;;;;;;;;;29.17;43.95;93873.41;4919464;29;9435;-61
2022/06/22 05:27:56;;;;;;;;;;;;;;;29.16;44.10;93876.72;4935729;29;6990;-61
2022/06/22 05:30:23;;;;;;;;;;;;;;;29.15;43.74;93880.75;4951905;28;7565;-61
2022/06/22 05:33:02;;;;;;;;;;;;;;;29.17;43.89;93881.00;4989157;28;7118;-60
2022/06/22 05:35:42;;;;;;;;;;;;;;;29.17;43.79;93875.47;5012044;28;7267;-60
2022/06/22 05:38:10;;;;;;;;;;;;;;;29.18;43.94;93874.16;5051910;28;9039;-61
2022/06/22 05:40:40;;;;;;;;;;;;;;;29.17;44.51;93881.00;5064670;28;7532;-61
2022/06/22 05:43:08;;;;;;;;;;;;;;;29.19;44.17;93878.44;5066195;28;7175;-60
2022/06/22 05:45:46;;;;;;;;;;;;;;;29.19;44.18;93870.13;5045304;28;7099;-60
2022/06/22 05:48:19;;;;;;;;;;;;;;;29.20;43.85;93886.19;5075101;28;7318;-61
2022/06/22 05:51:02;;;;;;;;;;;;;;;29.20;44.10;93877.88;5053860;28;7238;-60
2022/06/22 05:53:53;;;;;;;;;;;;;;;29.20;44.06;93883.41;5072206;28;7285;-60
2022/06/22 05:56:33;;;;;;;;;;;;;;;29.21;44.08;93873.06;5057718;28;7200;-60
2022/06/22 05:59:24;;;;;;;;;;;;;;;29.22;43.78;93869.75;5053373;28;7298;-60
2022/06/22 06:02:19;;;;;;;;;;;;;;;29.21;43.45;93854.41;5069051;28;6990;-60
2022/06/22 06:05:07;;;;;;;;;;;;;;;29.22;43.76;93841.31;5064936;28;7862;-60
2022/06/22 06:07:46;;;;;;;;;;;;;;;29.22;43.16;93849.63;5056951;28;7245;-60
2022/06/22 06:10:37;;;;;;;;;;;;;;;29.20;43.81;93852.94;5057008;28;8948;-61
2022/06/22 06:13:30;;;;;;;;;;;;;;;29.20;43.92;93854.97;5048030;28;7495;-61
2022/06/22 06:16:25;;;;;;;;;;;;;;;29.19;43.71;93859.75;5046261;28;7242;-61
2022/06/22 06:18:58;;;;;;;;;;;;;;;29.19;43.71;93854.22;4953191;28;9274;-61
2022/06/22 06:21:38;;;;;;;;;;;;;;;29.19;44.30;93851.44;4945722;28;7240;-61
2022/06/22 06:27:50;;;;;;;;;;;;;;;29.18;43.80;93833.38;4895487;29;7273;-61
2022/06/22 06:30:48;;;;;;;;;;;;;;;29.18;43.50;93838.91;4894353;29;7050;-61
2022/06/22 06:33:35;;;;;;;;;;;;;;;29.19;43.82;93836.88;4882249;29;7694;-61
2022/06/22 06:36:17;;;;;;;;;;;;;;;29.18;44.04;93827.81;4875623;29;9269;-61
2022/06/22 06:39:00;;;;;;;;;;;;;;;29.18;43.72;93816.00;4875412;29;8858;-61
2022/06/22 06:41:32;;;;;;;;;;;;;;;29.17;43.58;93795.16;4874714;29;9435;-61
2022/06/22 06:44:26;;;;;;;;;;;;;;;29.17;44.00;93784.78;4877844;29;7220;-61
2022/06/22 06:47:03;;;;;;;;;;;;;;;29.16;44.41;93783.31;4884493;29;7628;-61
2022/06/22 06:49:53;;;;;;;;;;;;;;;29.15;43.72;93786.59;4885921;29;7132;-61
2022/06/22 06:52:41;;;;;;;;;;;;;;;29.13;43.89;93781.59;4873574;29;7329;-61
2022/06/22 06:55:13;;;;;;;;;;;;;;;29.14;44.16;93793.44;4886389;29;7219;-60
2022/06/22 06:57:48;;;;;;;;;;;;;;;29.13;44.32;93800.25;4930262;29;9034;-61
2022/06/22 07:00:15;;;;;;;;;;;;;;;29.14;43.50;93808.03;4933205;28;7476;-60
2022/06/22 07:02:44;;;;;;;;;;;;;;;29.14;43.63;93796.22;4952712;28;7424;-61
2022/06/22 07:05:27;;;;;;;;;;;;;;;29.13;43.61;93809.31;5071679;28;8789;-61
2022/06/22 07:08:45;;;;;;;;;;;;;;;29.10;43.61;93811.13;5050659;28;9422;-61
2022/06/22 07:11:31;;;;;;;;;;;;;;;29.10;43.78;93819.44;4968772;28;9760;-61
2022/06/22 07:14:29;;;;;;;;;;;;;;;29.10;43.80;93824.97;4959724;28;7421;-61
2022/06/22 07:17:33;;;;;;;;;;;;;;;29.10;44.02;93835.34;4904004;29;9096;-61
2022/06/22 07:20:13;;;;;;;;;;;;;;;29.09;44.23;93828.31;4852264;29;8947;-61
2022/06/22 07:22:52;;;;;;;;;;;;;;;29.08;43.94;93833.09;4858919;29;9027;-61
2022/06/22 07:25:33;;;;;;;;;;;;;;;29.09;44.41;93840.13;4841523;29;8576;-61
2022/06/22 07:28:38;;;;;;;;;;;;;;;29.09;43.86;93844.94;4840477;29;7269;-61
2022/06/22 07:31:36;;;;;;;;;;;;;;;29.08;43.66;93868.34;4835548;29;7013;-61
2022/06/22 07:34:16;;;;;;;;;;;;;;;29.08;43.56;93869.09;4840291;29;7234;-61
2022/06/22 07:36:55;;;;;;;;;;;;;;;29.08;43.78;93882.94;4820534;29;9046;-61
2022/06/22 07:39:35;;;;;;;;;;;;;;;29.08;44.37;93885.72;4834820;29;9427;-61
2022/06/22 07:42:12;;;;;;;;;;;;;;;29.07;43.77;93886.28;4823687;29;8049;-61
2022/06/22 07:45:15;;;;;;;;;;;;;;;29.08;44.22;93894.03;4836442;29;9291;-61
2022/06/22 07:48:36;;;;;;;;;;;;;;;29.07;44.24;93900.88;4806728;29;7901;-61
2022/06/22 07:51:22;;;;;;;;;;;;;;;29.08;43.99;93916.19;4781193;29;7609;-61
2022/06/22 07:53:57;;;;;;;;;;;;;;;29.09;43.87;93909.38;4824845;29;9433;-61
2022/06/22 07:56:54;;;;;;;;;;;;;;;29.09;44.16;93901.06;4840383;29;6993;-61
2022/06/22 07:59:32;;;;;;;;;;;;;;;29.08;44.16;93901.59;4840017;29;9138;-62
2022/06/22 08:02:05;;;;;;;;;;;;;;;29.08;44.14;93910.63;4840117;29;7032;-61
2022/06/22 08:04:53;;;;;;;;;;;;;;;29.10;44.36;93916.38;4860518;29;9431;-61
2022/06/22 08:07:26;;;;;;;;;;;;;;;29.09;44.38;93916.94;4857932;29;7062;-61
2022/06/22 08:10:03;;;;;;;;;;;;;;;29.09;44.51;93923.22;4861697;29;9140;-61
2022/06/22 08:13:02;;;;;;;;;;;;;;;29.09;44.06;93931.53;4912456;29;7393;-61
2022/06/22 08:15:49;;;;;;;;;;;;;;;29.09;44.17;93939.81;4914100;29;7275;-61
2022/06/22 08:18:19;;;;;;;;;;;;;;;29.08;44.04;93938.31;4892417;29;7280;-61
2022/06/22 08:20:57;;;;;;;;;;;;;;;29.08;43.96;93935.56;4879950;29;7267;-61
2022/06/22 08:23:39;;;;;;;;;;;;;;;29.09;44.10;93939.81;4934082;28;7049;-61
2022/06/22 08:26:38;;;;;;;;;;;;;;;29.09;44.16;93947.38;5055285;28;7259;-61
2022/06/22 08:29:05;;;;;;;;;;;;;;;29.10;44.17;93948.88;5030023;28;7301;-61
2022/06/22 08:31:55;;;;;;;;;;;;;;;29.07;44.12;93941.66;5029761;28;7120;-61
2022/06/22 08:34:55;;;;;;;;;;;;;;;29.07;44.38;93947.94;5029788;28;9095;-61
2022/06/22 08:37:49;;;;;;;;;;;;;;;29.09;43.73;93945.38;5013133;28;9347;-61
2022/06/22 08:40:21;;;;;;;;;;;;;;;29.09;44.08;93939.81;5012417;28;8795;-61
2022/06/22 08:43:00;;;;;;;;;;;;;;;29.07;44.31;93934.09;5030956;28;8774;-61
2022/06/22 08:45:45;;;;;;;;;;;;;;;29.08;43.88;93927.25;5026301;28;7188;-61
2022/06/22 08:48:35;;;;;;;;;;;;;;;29.08;44.03;93921.72;5029018;28;7012;-61
2022/06/22 08:51:26;;;;;;;;;;;;;;;29.08;44.08;93927.25;5013050;28;8364;-61
2022/06/22 08:54:13;;;;;;;;;;;;;;;29.08;43.72;93932.78;5012696;28;9174;-61
2022/06/22 08:57:03;;;;;;;;;;;;;;;29.10;43.85;93941.28;5027068;28;7484;-61
2022/06/22 09:00:05;;;;;;;;;;;;;;;29.09;44.28;93939.81;4997347;28;9186;-61
2022/06/22 09:03:11;;;;;;;;;;;;;;;29.10;43.95;93944.06;4948192;28;9521;-62
2022/06/22 09:06:00;;;;;;;;;;;;;;;29.09;43.98;93933.53;4981712;28;7494;-61
2022/06/22 09:09:05;;;;;;;;;;;;;;;29.10;43.76;93941.28;4986951;28;9503;-61
2022/06/22 09:12:05;;;;;;;;;;;;;;;29.10;43.93;93952.38;4918574;29;7003;-61
2022/06/22 09:14:54;;;;;;;;;;;;;;;29.10;44.07;93951.66;4898557;29;9086;-61
2022/06/22 09:17:59;;;;;;;;;;;;;;;29.09;43.71;93956.44;4926979;29;7537;-61
2022/06/22 09:20:48;;;;;;;;;;;;;;;29.11;44.46;93953.13;4929376;29;7308;-61
2022/06/22 09:23:18;;;;;;;;;;;;;;;29.09;44.24;93948.13;4920203;29;7219;-61
2022/06/22 09:26:29;;;;;;;;;;;;;;;29.09;44.38;93956.44;4919591;29;8991;-61
2022/06/22 09:29:14;;;;;;;;;;;;;;;29.09;44.03;93953.69;4922996;29;9048;-61
2022/06/22 09:32:10;;;;;;;;;;;;;;;29.10;44.07;93946.84;4920422;29;6994;-61
2022/06/22 09:34:52;;;;;;;;;;;;;;;29.10;44.20;93948.88;4918996;29;8956;-61
2022/06/22 09:38:13;;;;;;;;;;;;;;;29.10;44.25;93946.84;4945419;28;9058;-61
2022/06/22 09:40:49;;;;;;;;;;;;;;;29.11;43.98;93947.59;4939120;28;7290;-61
2022/06/22 09:43:45;;;;;;;;;;;;;;;29.12;44.45;93959.41;4907027;29;7447;-61
2022/06/22 09:46:29;;;;;;;;;;;;;;;29.12;43.92;93956.63;4921983;29;9125;-61
2022/06/22 09:49:29;;;;;;;;;;;;;;;29.12;43.77;93960.16;4944545;28;7303;-61
2022/06/22 09:52:23;;;;;;;;;;;;;;;29.12;43.69;93959.41;4971070;28;9214;-61
2022/06/22 09:58:43;;;;;;;;;;;;;;;29.12;44.16;93959.41;4989725;28;9390;-61
2022/06/22 10:01:46;;;;;;;;;;;;;;;29.14;44.26;93962.38;4949649;28;7217;-61
2022/06/22 10:04:17;;;;;;;;;;;;;;;29.12;43.86;93956.63;4947049;28;7608;-61
2022/06/22 10:07:20;;;;;;;;;;;;;;;29.13;44.20;93966.41;4936479;28;9149;-61
2022/06/22 10:10:13;;;;;;;;;;;;;;;29.11;44.38;93958.66;4969658;28;9048;-61
2022/06/22 10:13:26;;;;;;;;;;;;;;;29.11;44.18;93964.19;4948283;28;9055;-61
2022/06/22 10:16:02;;;;;;;;;;;;;;;29.10;44.61;93957.19;4968122;28;7205;-61
2022/06/22 10:19:21;;;;;;;;;;;;;;;29.10;43.67;93954.41;4983305;28;9498;-61
2022/06/22 10:22:05;;;;;;;;;;;;;;;29.10;44.15;93954.41;4881022;29;9696;-61
2022/06/22 10:24:53;;;;;;;;;;;;;;;29.07;44.33;93959.00;4896477;29;7213;-61
2022/06/22 10:27:24;;;;;;;;;;;;;;;29.12;44.65;93956.63;4895607;29;6958;-61
2022/06/22 10:29:59;;;;;;;;;;;;;;;29.09;44.59;93959.22;4896899;29;7059;-61
2022/06/22 10:33:15;;;;;;;;;;;;;;;29.09;44.44;93961.97;4897229;29;7211;-61
2022/06/22 10:36:00;;;;;;;;;;;;;;;29.10;44.33;93949.59;4897492;29;8770;-61
2022/06/22 10:39:01;;;;;;;;;;;;;;;29.10;44.23;93955.13;4927416;29;7396;-61
2022/06/22 10:45:08;;;;;;;;;;;;;;;29.12;44.31;93934.47;4924833;29;7631;-61
2022/06/22 10:47:35;;;;;;;;;;;;;;;29.13;44.35;93927.63;4930722;28;7558;-61
2022/06/22 10:50:39;;;;;;;;;;;;;;;29.10;44.29;93924.69;4945860;28;7022;-61
2022/06/22 10:53:55;;;;;;;;;;;;;;;29.09;45.11;93928.00;4945041;28;8850;-61
2022/06/22 10:56:52;;;;;;;;;;;;;;;29.25;44.31;93923.31;5041857;28;7363;-61
2022/06/22 10:59:18;;;;;;;;;;;;;;;29.55;43.79;93921.44;5056150;28;7198;-61
2022/06/22 11:01:58;;;;;;;;;;;;;;;29.71;42.68;93925.72;5068565;28;9061;-61
2022/06/22 11:04:37;;;;;;;;;;;;;;;29.75;43.87;93919.88;5044988;28;9070;-60
2022/06/22 11:07:41;;;;;;;;;;;;;;;29.69;43.40;93914.44;5055597;28;8910;-61
2022/06/22 11:10:44;;;;;;;;;;;;;;;29.64;43.60;93917.41;5032866;28;8479;-61
2022/06/22 11:13:14;;;;;;;;;;;;;;;29.60;43.62;93917.00;5038864;28;9106;-60
2022/06/22 11:15:55;;;;;;;;;;;;;;;29.57;43.19;93920.88;5061745;28;8846;-60
2022/06/22 11:18:37;;;;;;;;;;;;;;;29.53;43.33;93932.31;5069942;28;7224;-61
2022/06/22 11:21:27;;;;;;;;;;;;;;;29.49;43.61;93943.00;5066525;28;7470;-61
2022/06/22 11:24:14;;;;;;;;;;;;;;;29.49;43.92;93947.81;5058493;28;8453;-61
2022/06/22 11:33:12;;;;;;;;;;;;;;;29.39;43.80;93944.81;5064723;28;7353;-61
2022/06/22 11:35:58;;;;;;;;;;;;;;;29.37;43.51;93947.38;5065047;28;9066;-61
2022/06/22 11:38:50;;;;;;;;;;;;;;;29.36;42.91;93956.25;5056298;28;7170;-61
2022/06/22 11:41:38;;;;;;;;;;;;;;;29.35;44.22;93946.44;5064791;28;9387;-61
2022/06/22 11:44:18;;;;;;;;;;;;;;;29.34;43.90;93964.38;5069539;28;7282;-61
2022/06/22 11:47:24;;;;;;;;;;;;;;;29.32;43.79;93953.09;5069061;28;7195;-61
2022/06/22 11:50:13;;;;;;;;;;;;;;;29.31;43.81;93951.59;5047358;28;7021;-61
2022/06/22 11:53:06;;;;;;;;;;;;;;;29.31;43.16;93951.59;5043851;28;9485;-61
2022/06/22 11:55:46;;;;;;;;;;;;;;;29.31;43.78;93952.34;5057995;28;7030;-60
2022/06/22 11:58:27;;;;;;;;;;;;;;;29.28;44.09;93949.91;5051299;28;7187;-61
2022/06/22 12:00:59;;;;;;;;;;;;;;;29.30;43.95;93941.78;5050589;28;9090;-61
2022/06/22 12:03:49;;;;;;;;;;;;;;;29.31;43.77;93937.75;5060923;28;7545;-60
2022/06/22 12:06:31;;;;;;;;;;;;;;;29.26;43.39;93924.78;5069564;28;7487;-61
2022/06/22 12:09:36;;;;;;;;;;;;;;;29.31;43.58;93910.03;5050698;28;9075;-60
2022/06/22 12:15:54;;;;;;;;;;;;;;;29.29;43.98;93868.31;5007686;28;7392;-61
2022/06/22 12:18:42;;;;;;;;;;;;;;;29.31;43.47;93854.63;4996690;28;7011;-61
2022/06/22 12:21:34;;;;;;;;;;;;;;;29.32;43.19;93853.38;4989901;28;8884;-61
2022/06/22 12:24:18;;;;;;;;;;;;;;;29.33;43.45;93852.81;4988497;28;7246;-60
2022/06/22 12:26:44;;;;;;;;;;;;;;;29.34;43.30;93859.81;4988323;28;9525;-61
2022/06/22 12:33:20;;;;;;;;;;;;;;;29.37;43.40;93830.28;4932251;29;7478;-61
2022/06/22 12:35:58;;;;;;;;;;;;;;;29.38;43.13;93837.31;4932678;29;7284;-61
2022/06/22 12:38:27;;;;;;;;;;;;;;;29.42;44.06;93832.16;4947597;29;7311;-61
2022/06/22 12:41:27;;;;;;;;;;;;;;;29.40;43.88;93829.94;4932074;29;7849;-61
2022/06/22 12:44:25;;;;;;;;;;;;;;;29.42;43.62;93821.81;4866780;29;7325;-60
2022/06/22 12:47:28;;;;;;;;;;;;;;;29.43;44.17;93830.84;4864875;29;7085;-60
2022/06/22 12:50:22;;;;;;;;;;;;;;;29.41;44.40;93812.00;4865046;29;7235;-61
2022/06/22 12:52:56;;;;;;;;;;;;;;;29.44;44.24;93812.94;4884819;29;7597;-61
2022/06/22 12:55:34;;;;;;;;;;;;;;;29.43;44.22;93805.91;4879758;29;9427;-61
2022/06/22 12:58:17;;;;;;;;;;;;;;;29.46;44.52;93810.38;4882464;29;8807;-61
2022/06/22 13:00:43;;;;;;;;;;;;;;;29.47;44.40;93806.31;4886664;29;7074;-61
2022/06/22 13:03:22;;;;;;;;;;;;;;;29.47;45.38;93809.09;4886097;29;7117;-61
2022/06/22 13:05:51;;;;;;;;;;;;;;;29.44;44.70;93801.88;4890407;29;7662;-61
2022/06/22 13:08:25;;;;;;;;;;;;;;;29.47;44.45;93803.53;4930285;28;8391;-61
2022/06/22 13:10:57;;;;;;;;;;;;;;;29.49;43.74;93798.19;4989900;28;7205;-61
2022/06/22 13:13:58;;;;;;;;;;;;;;;29.47;44.60;93798.72;4991928;28;7263;-61
2022/06/22 13:16:43;;;;;;;;;;;;;;;29.48;44.98;93807.78;4999907;28;8513;-61
2022/06/22 13:19:19;;;;;;;;;;;;;;;29.48;44.80;93807.78;4992063;28;7013;-61
2022/06/22 13:22:21;;;;;;;;;;;;;;;29.50;45.10;93794.09;5064293;28;7275;-61
2022/06/22 13:25:20;;;;;;;;;;;;;;;29.50;44.74;93783.78;5059294;28;7085;-61
2022/06/22 13:28:31;;;;;;;;;;;;;;;29.52;44.32;93780.44;5057854;28;9114;-61
2022/06/22 13:31:08;;;;;;;;;;;;;;;29.52;45.25;93780.44;4955023;28;7045;-61
2022/06/22 13:33:57;;;;;;;;;;;;;;;29.54;44.63;93786.16;4969555;28;9415;-61
2022/06/22 13:37:00;;;;;;;;;;;;;;;29.55;44.57;93779.34;4960191;28;8916;-61
2022/06/22 13:39:43;;;;;;;;;;;;;;;29.56;44.95;93775.28;4950117;28;7286;-61
2022/06/22 13:42:38;;;;;;;;;;;;;;;29.59;45.22;93785.25;4959302;28;7077;-61
2022/06/22 13:45:40;;;;;;;;;;;;;;;29.60;45.36;93779.16;4969873;28;7264;-61
2022/06/22 13:48:50;;;;;;;;;;;;;;;29.60;45.99;93781.22;4965823;28;7265;-61
2022/06/22 13:51:51;;;;;;;;;;;;;;;29.60;45.21;93787.47;4958084;28;9083;-61
2022/06/22 13:54:55;;;;;;;;;;;;;;;29.64;45.20;93781.59;4957234;28;7188;-61
2022/06/22 13:57:39;;;;;;;;;;;;;;;29.63;44.82;93780.09;4957021;28;7116;-61
2022/06/22 14:00:23;;;;;;;;;;;;;;;29.64;44.78;93762.94;4954422;28;7269;-61
2022/06/22 14:03:16;;;;;;;;;;;;;;;29.65;44.62;93772.72;4972162;28;7003;-61
2022/06/22 14:05:59;;;;;;;;;;;;;;;29.68;44.94;93766.06;4975498;28;9433;-61
2022/06/22 14:08:50;;;;;;;;;;;;;;;29.69;45.57;93772.34;5057630;28;8113;-61
2022/06/22 14:11:38;;;;;;;;;;;;;;;29.72;44.35;93774.00;5054346;28;7283;-61
2022/06/22 14:14:42;;;;;;;;;;;;;;;29.72;44.42;93774.75;5062169;28;8787;-61
2022/06/22 14:17:25;;;;;;;;;;;;;;;29.72;45.38;93774.00;5060016;28;7464;-61
2022/06/22 14:20:10;;;;;;;;;;;;;;;29.74;44.97;93757.59;5066872;28;8459;-61
2022/06/22 14:22:52;;;;;;;;;;;;;;;29.75;45.07;93759.09;5045216;28;7302;-61
2022/06/22 14:25:49;;;;;;;;;;;;;;;29.76;44.95;93755.75;5055695;28;8874;-61
2022/06/22 14:28:41;;;;;;;;;;;;;;;29.78;44.46;93760.72;5031972;28;8677;-61
2022/06/22 14:31:41;;;;;;;;;;;;;;;29.78;44.64;93761.47;5007539;28;7269;-61
2022/06/22 14:34:23;;;;;;;;;;;;;;;29.80;44.92;93755.38;5012785;28;6877;-61
2022/06/22 14:37:26;;;;;;;;;;;;;;;29.80;44.51;93749.81;5002283;28;7295;-61
2022/06/22 14:40:34;;;;;;;;;;;;;;;29.81;44.40;93754.09;5000888;28;7060;-61
2022/06/22 14:43:36;;;;;;;;;;;;;;;29.83;43.98;93745.97;4969436;28;6996;-61
2022/06/22 14:46:11;;;;;;;;;;;;;;;29.85;45.19;93742.63;4895823;29;7309;-61
2022/06/22 14:48:50;;;;;;;;;;;;;;;29.86;44.68;93742.09;4895420;29;7313;-61
2022/06/22 14:51:39;;;;;;;;;;;;;;;29.86;44.87;93742.09;4867965;29;7099;-61
2022/06/22 14:54:24;;;;;;;;;;;;;;;29.88;44.02;93741.53;4881338;29;7445;-62
2022/06/22 14:57:01;;;;;;;;;;;;;;;29.87;44.86;93734.50;4880725;29;9081;-61
2022/06/22 14:59:35;;;;;;;;;;;;;;;29.90;43.85;93742.44;4884894;29;6881;-61